Time;durP1;ratioP1;P1;durP2;ratioP2;P2;SDS_P1;SDS_P2;PMS_P1;PMS_P2;Temp;Humidity;BMP_temperature;BMP_pressure;BME280_temperature;BME280_humidity;BME280_pressure;Samples;Min_cycle;Max_cycle;Signal;HPM_P1;HPM_P2
2021/12/21 00:01:25;;;;;;;23.80;6.35;;;-1.60;99.60;;;;;;4930151;29;20126;-67
2021/12/21 00:03:51;;;;;;;16.88;5.97;;;-1.60;99.50;;;;;;4934779;29;20427;-67
2021/12/21 00:06:17;;;;;;;26.02;6.55;;;-1.60;99.60;;;;;;4935032;29;20514;-67
2021/12/21 00:08:44;;;;;;;19.48;5.72;;;-1.60;99.60;;;;;;4932733;29;20047;-67
2021/12/21 00:11:10;;;;;;;17.05;5.60;;;-1.60;99.60;;;;;;4947698;29;20406;-67
2021/12/21 00:13:51;;;;;;;14.48;6.03;;;-1.50;99.70;;;;;;4945906;29;20043;-67
2021/12/21 00:22:01;;;;;;;15.43;5.65;;;-1.60;99.70;;;;;;4950033;28;20183;-67
2021/12/21 00:24:33;;;;;;;15.48;5.68;;;-1.60;99.70;;;;;;4952068;29;20043;-67
2021/12/21 00:27:00;;;;;;;19.27;6.10;;;-1.60;99.70;;;;;;4951559;29;20047;-67
2021/12/21 00:29:26;;;;;;;20.70;5.38;;;-1.70;99.70;;;;;;4951087;29;20410;-66
2021/12/21 00:31:52;;;;;;;18.73;5.75;;;-1.70;99.70;;;;;;4909141;29;20047;-67
2021/12/21 00:34:17;;;;;;;18.58;6.05;;;-1.70;99.70;;;;;;4933644;29;20125;-67
2021/12/21 00:36:46;;;;;;;21.90;5.80;;;-1.70;99.70;;;;;;4934359;29;20086;-67
2021/12/21 00:39:15;;;;;;;18.40;6.05;;;-1.70;99.70;;;;;;4933537;29;20144;-67
2021/12/21 00:41:41;;;;;;;15.32;5.60;;;-1.80;99.70;;;;;;4934518;29;20058;-67
2021/12/21 00:44:06;;;;;;;16.85;5.82;;;-1.80;99.70;;;;;;4933327;29;20051;-67
2021/12/21 00:46:33;;;;;;;19.05;5.80;;;-1.80;99.70;;;;;;4951518;29;20471;-67
2021/12/21 00:49:12;;;;;;;23.98;6.85;;;-1.80;99.80;;;;;;4934338;29;20043;-67
2021/12/21 00:51:39;;;;;;;16.48;6.75;;;-1.80;99.80;;;;;;4950538;29;20051;-67
2021/12/21 00:54:05;;;;;;;14.40;6.55;;;-1.80;99.80;;;;;;4952061;29;20493;-66
2021/12/21 00:56:31;;;;;;;17.70;6.20;;;-1.80;99.80;;;;;;4932854;29;20135;-67
2021/12/21 00:58:57;;;;;;;18.90;6.18;;;-1.80;99.80;;;;;;4897394;29;20043;-66
2021/12/21 01:01:23;;;;;;;30.73;6.38;;;-1.80;99.90;;;;;;4944025;28;20065;-67
2021/12/21 01:03:52;;;;;;;26.75;6.35;;;-1.80;99.90;;;;;;4948501;29;20043;-66
2021/12/21 01:06:27;;;;;;;19.48;5.65;;;-1.70;99.90;;;;;;4934463;29;20078;-67
2021/12/21 01:11:34;;;;;;;15.05;5.13;;;-1.80;99.90;;;;;;4950828;28;20131;-66
2021/12/21 01:19:40;;;;;;;23.08;6.55;;;-1.80;99.90;;;;;;4949020;29;20055;-66
2021/12/21 01:29:43;;;;;;;16.27;5.28;;;-1.90;99.90;;;;;;4950620;29;20073;-66
2021/12/21 01:42:35;;;;;;;18.65;4.53;;;-2.20;99.80;;;;;;4892669;29;20487;-67
2021/12/21 01:50:30;;;;;;;20.10;4.65;;;-2.20;99.80;;;;;;4891664;29;20044;-67
2021/12/21 01:52:56;;;;;;;22.90;4.68;;;-2.30;99.80;;;;;;4900645;29;20056;-67
2021/12/21 01:55:22;;;;;;;14.68;4.70;;;-2.30;99.80;;;;;;4891083;29;20071;-67
2021/12/21 01:57:48;;;;;;;20.20;5.53;;;-2.30;99.80;;;;;;4867529;29;20048;-66
2021/12/21 02:00:14;;;;;;;16.58;5.00;;;-2.30;99.80;;;;;;4910675;29;20044;-67
2021/12/21 02:02:40;;;;;;;10.63;4.68;;;-2.30;99.80;;;;;;4878272;29;20044;-66
2021/12/21 02:05:07;;;;;;;14.98;5.40;;;-2.30;99.90;;;;;;4891267;29;20070;-66
2021/12/21 02:07:33;;;;;;;18.05;4.93;;;-2.30;99.90;;;;;;4907975;29;20476;-66
2021/12/21 02:09:59;;;;;;;15.63;4.45;;;-2.30;99.90;;;;;;4910369;29;20055;-67
2021/12/21 02:12:25;;;;;;;14.82;4.85;;;-2.30;99.90;;;;;;4910472;29;20194;-67
2021/12/21 02:14:57;;;;;;;20.95;5.30;;;-2.40;99.80;;;;;;4910407;29;20086;-67
2021/12/21 02:23:00;;;;;;;15.43;5.30;;;-2.40;99.90;;;;;;4909066;29;20088;-67
2021/12/21 02:30:23;;;;;;;13.15;4.90;;;-2.20;99.90;;;;;;4898950;29;20119;-67
2021/12/21 02:32:50;;;;;;;23.35;4.97;;;-2.20;99.90;;;;;;4912132;29;20135;-66
2021/12/21 02:35:16;;;;;;;15.88;5.03;;;-2.20;99.90;;;;;;4927457;29;20429;-66
2021/12/21 02:37:42;;;;;;;17.85;4.65;;;-2.20;99.90;;;;;;4890192;29;20107;-67
2021/12/21 02:40:08;;;;;;;13.73;4.78;;;-2.20;99.90;;;;;;4928788;29;20036;-66
2021/12/21 02:42:34;;;;;;;16.58;5.28;;;-2.20;99.90;;;;;;4912295;29;20543;-67
2021/12/21 02:45:00;;;;;;;24.30;6.35;;;-2.20;99.90;;;;;;4909775;29;20044;-67
2021/12/21 02:47:26;;;;;;;13.82;5.25;;;-2.20;99.90;;;;;;4894903;29;20042;-66
2021/12/21 02:49:52;;;;;;;17.33;5.13;;;-2.20;99.90;;;;;;4928966;29;20102;-66
2021/12/21 02:52:18;;;;;;;22.55;6.00;;;-2.10;99.90;;;;;;4911093;29;20039;-67
2021/12/21 02:54:43;;;;;;;26.27;4.85;;;-2.10;99.90;;;;;;4911391;29;20377;-67
2021/12/21 02:57:09;;;;;;;11.45;5.13;;;-2.10;99.90;;;;;;4911501;29;20427;-66
2021/12/21 02:59:35;;;;;;;19.15;5.10;;;-2.10;99.90;;;;;;4889239;29;20047;-67
2021/12/21 03:02:01;;;;;;;15.27;4.88;;;-2.10;99.90;;;;;;4908301;29;20126;-67
2021/12/21 03:04:27;;;;;;;24.33;4.88;;;-2.10;99.90;;;;;;4928865;29;20050;-67
2021/12/21 03:11:57;;;;;;;26.95;6.28;;;-1.70;99.90;;;;;;4920529;29;20107;-66
2021/12/21 03:14:25;;;;;;;19.33;6.25;;;-1.70;99.90;;;;;;4911321;29;20039;-67
2021/12/21 03:16:51;;;;;;;15.20;5.15;;;-1.80;99.90;;;;;;4926839;29;20489;-66
2021/12/21 03:19:17;;;;;;;14.52;5.47;;;-1.80;99.90;;;;;;4928451;29;20123;-66
2021/12/21 03:21:42;;;;;;;21.17;5.85;;;-1.80;99.90;;;;;;4918438;29;20111;-67
2021/12/21 03:24:10;;;;;;;16.13;5.28;;;-1.90;99.90;;;;;;4913239;29;20055;-67
2021/12/21 03:26:37;;;;;;;23.80;5.70;;;-1.90;99.90;;;;;;4916935;29;20036;-66
2021/12/21 03:29:04;;;;;;;23.88;5.53;;;-2.00;99.90;;;;;;4911214;29;20051;-67
2021/12/21 03:31:31;;;;;;;17.90;5.50;;;-2.00;99.90;;;;;;4924745;29;20048;-67
2021/12/21 03:33:57;;;;;;;24.27;6.70;;;-2.00;99.90;;;;;;4902775;29;20055;-66
2021/12/21 03:36:24;;;;;;;25.65;6.82;;;-2.00;99.90;;;;;;4909782;29;20059;-67
2021/12/21 03:39:16;;;;;;;24.55;6.47;;;-2.00;99.90;;;;;;4910499;29;20549;-67
2021/12/21 03:41:44;;;;;;;22.85;4.88;;;-2.00;99.90;;;;;;4928190;29;20059;-67
2021/12/21 03:44:10;;;;;;;23.98;5.72;;;-1.90;99.90;;;;;;4911464;29;20048;-67
2021/12/21 03:46:44;;;;;;;14.95;5.68;;;-1.90;99.90;;;;;;4928351;29;20095;-66
2021/12/21 03:49:38;;;;;;;18.75;5.82;;;-1.90;99.90;;;;;;4911634;29;20455;-67
2021/12/21 03:51:56;;;;;;;12.90;4.80;;;-1.90;99.90;;;;;;4927704;29;20044;-67
2021/12/21 03:54:22;;;;;;;19.90;5.60;;;-1.80;99.90;;;;;;4911803;29;20044;-66
2021/12/21 03:56:50;;;;;;;13.90;5.85;;;-1.80;99.90;;;;;;4913031;29;20094;-67
2021/12/21 03:59:16;;;;;;;19.55;5.85;;;-1.80;99.90;;;;;;4914763;29;20091;-66
2021/12/21 04:01:43;;;;;;;21.77;5.95;;;-1.90;99.90;;;;;;4931926;29;20414;-67
2021/12/21 04:04:09;;;;;;;18.05;6.03;;;-1.90;99.90;;;;;;4929651;29;20097;-66
2021/12/21 04:06:36;;;;;;;15.23;5.75;;;-1.90;99.90;;;;;;4931384;29;20054;-67
2021/12/21 04:09:05;;;;;;;21.42;5.28;;;-2.00;99.90;;;;;;4913721;29;20068;-67
2021/12/21 04:11:30;;;;;;;19.13;6.15;;;-2.00;99.90;;;;;;4930540;29;20048;-67
2021/12/21 04:13:57;;;;;;;23.45;7.65;;;-2.10;99.90;;;;;;4913673;29;20501;-67
2021/12/21 04:16:24;;;;;;;31.75;6.47;;;-2.00;99.90;;;;;;4932161;29;20047;-67
2021/12/21 04:18:50;;;;;;;22.13;6.38;;;-2.00;99.90;;;;;;4898241;29;20051;-67
2021/12/21 04:21:16;;;;;;;20.00;6.63;;;-1.90;99.90;;;;;;4931619;29;20055;-67
2021/12/21 04:23:43;;;;;;;24.10;6.78;;;-1.90;99.90;;;;;;4931474;29;20514;-67
2021/12/21 04:26:10;;;;;;;23.67;6.47;;;-1.90;99.90;;;;;;4906282;29;20072;-67
2021/12/21 04:28:37;;;;;;;20.17;6.18;;;-1.90;99.90;;;;;;4912969;29;20051;-67
2021/12/21 04:31:03;;;;;;;19.63;6.35;;;-1.90;99.90;;;;;;4928184;29;20588;-66
2021/12/21 04:33:29;;;;;;;20.70;6.13;;;-2.00;99.90;;;;;;4919420;29;20044;-67
2021/12/21 04:35:57;;;;;;;28.23;6.22;;;-2.00;99.90;;;;;;4890999;29;20043;-66
2021/12/21 04:38:27;;;;;;;18.67;5.93;;;-2.00;99.90;;;;;;4931139;29;20100;-67
2021/12/21 04:41:06;;;;;;;23.20;7.47;;;-2.10;99.90;;;;;;4930862;29;20114;-67
2021/12/21 04:43:32;;;;;;;13.65;5.45;;;-2.10;99.90;;;;;;4929862;29;20103;-67
2021/12/21 04:45:58;;;;;;;15.00;5.45;;;-2.20;99.90;;;;;;4930552;29;20450;-66
2021/12/21 04:48:23;;;;;;;18.95;6.63;;;-2.20;99.90;;;;;;4925454;29;20083;-67
2021/12/21 04:50:49;;;;;;;16.13;6.03;;;-2.20;99.90;;;;;;4931480;29;20131;-66
2021/12/21 04:53:15;;;;;;;17.50;6.47;;;-2.30;99.90;;;;;;4930247;29;20505;-66
2021/12/21 04:55:42;;;;;;;31.27;6.30;;;-2.30;99.90;;;;;;4931144;29;20094;-66
2021/12/21 04:58:08;;;;;;;21.33;6.32;;;-2.30;99.90;;;;;;4907340;29;20665;-66
2021/12/21 05:00:35;;;;;;;20.55;6.82;;;-2.30;99.90;;;;;;4906724;29;20028;-67
2021/12/21 05:03:02;;;;;;;17.70;5.13;;;-2.30;99.90;;;;;;4930591;29;20056;-67
2021/12/21 05:05:27;;;;;;;21.73;5.88;;;-2.30;99.90;;;;;;4912004;29;20167;-67
2021/12/21 05:08:08;;;;;;;20.75;5.47;;;-2.30;99.90;;;;;;4927226;29;20188;-67
2021/12/21 05:10:46;;;;;;;15.20;5.65;;;-2.30;99.90;;;;;;4912240;29;20055;-66
2021/12/21 05:13:14;;;;;;;16.52;5.20;;;-2.30;99.90;;;;;;4929847;29;20123;-66
2021/12/21 05:15:40;;;;;;;15.55;5.82;;;-2.30;99.90;;;;;;4909413;29;20056;-66
2021/12/21 05:18:06;;;;;;;21.85;6.35;;;-2.30;99.90;;;;;;4929894;29;20071;-66
2021/12/21 05:20:32;;;;;;;22.58;5.80;;;-2.30;99.90;;;;;;4929301;29;20054;-66
2021/12/21 05:22:58;;;;;;;14.23;5.47;;;-2.40;99.90;;;;;;4929581;29;20479;-67
2021/12/21 05:25:24;;;;;;;12.27;5.03;;;-2.40;99.90;;;;;;4882034;29;20044;-66
2021/12/21 05:27:50;;;;;;;17.30;5.13;;;-2.40;99.90;;;;;;4930217;29;20044;-66
2021/12/21 05:30:15;;;;;;;15.80;5.72;;;-2.50;99.90;;;;;;4896982;29;20700;-66
2021/12/21 05:32:42;;;;;;;12.25;4.82;;;-2.50;99.90;;;;;;4913725;29;20083;-66
2021/12/21 05:35:09;;;;;;;15.00;5.22;;;-2.50;99.90;;;;;;4926024;29;20514;-66
2021/12/21 05:37:37;;;;;;;24.38;5.57;;;-2.50;99.90;;;;;;4906643;29;20040;-66
2021/12/21 05:42:35;;;;;;;12.27;5.47;;;-2.50;99.90;;;;;;4930196;29;20059;-67
2021/12/21 05:45:06;;;;;;;22.58;6.28;;;-2.50;99.90;;;;;;4929669;29;20040;-66
2021/12/21 05:47:31;;;;;;;15.45;5.90;;;-2.50;99.90;;;;;;4913000;29;20568;-67
2021/12/21 05:49:59;;;;;;;17.88;5.43;;;-2.50;99.90;;;;;;4911375;29;20083;-66
2021/12/21 05:52:25;;;;;;;15.50;5.20;;;-2.60;99.90;;;;;;4930400;29;20122;-66
2021/12/21 05:54:51;;;;;;;12.05;5.20;;;-2.60;99.90;;;;;;4929700;29;20122;-67
2021/12/21 05:57:17;;;;;;;10.20;5.38;;;-2.60;99.90;;;;;;4929142;29;20840;-67
2021/12/21 05:59:43;;;;;;;17.92;5.15;;;-2.60;99.90;;;;;;4913001;29;20127;-66
2021/12/21 06:02:09;;;;;;;20.50;5.20;;;-2.70;99.90;;;;;;4928056;29;20047;-67
2021/12/21 06:04:35;;;;;;;9.95;5.00;;;-2.70;99.90;;;;;;4911197;29;20055;-66
2021/12/21 06:07:02;;;;;;;15.68;5.20;;;-2.70;99.90;;;;;;4910267;29;20047;-66
2021/12/21 06:09:29;;;;;;;13.73;4.88;;;-2.70;99.90;;;;;;4916008;29;20418;-66
2021/12/21 06:14:48;;;;;;;19.45;6.07;;;-2.70;99.90;;;;;;4928360;29;20082;-66
2021/12/21 06:27:53;;;;;;;16.60;5.78;;;-2.50;99.90;;;;;;4902212;29;20043;-67
2021/12/21 06:30:19;;;;;;;11.15;5.20;;;-2.40;99.90;;;;;;4928584;29;20550;-66
2021/12/21 06:32:45;;;;;;;16.05;5.68;;;-2.40;99.90;;;;;;4902349;29;20086;-67
2021/12/21 06:35:11;;;;;;;15.43;5.70;;;-2.40;99.90;;;;;;4924091;29;20054;-67
2021/12/21 06:37:37;;;;;;;14.50;5.85;;;-2.40;99.90;;;;;;4911310;29;20044;-66
2021/12/21 06:40:05;;;;;;;15.48;5.85;;;-2.40;99.90;;;;;;4911409;29;20500;-66
2021/12/21 06:42:39;;;;;;;9.15;4.93;;;-2.50;99.90;;;;;;4911902;29;20051;-66
2021/12/21 06:45:12;;;;;;;11.52;5.15;;;-2.50;99.90;;;;;;4884837;29;20047;-66
2021/12/21 06:53:09;;;;;;;13.95;5.32;;;-2.60;99.90;;;;;;4928195;29;20051;-67
2021/12/21 06:55:35;;;;;;;16.45;5.30;;;-2.60;99.90;;;;;;4923263;29;20044;-66
2021/12/21 06:58:01;;;;;;;14.07;5.05;;;-2.70;99.90;;;;;;4899732;29;20067;-67
2021/12/21 07:00:27;;;;;;;14.32;5.75;;;-2.70;99.90;;;;;;4928238;29;20044;-67
2021/12/21 07:02:52;;;;;;;13.25;5.38;;;-2.70;99.90;;;;;;4928942;29;20442;-66
2021/12/21 07:05:19;;;;;;;17.45;6.50;;;-2.70;99.90;;;;;;4928314;29;20044;-66
2021/12/21 07:07:44;;;;;;;14.30;5.90;;;-2.70;99.90;;;;;;4924671;29;20101;-67
2021/12/21 07:10:20;;;;;;;14.27;4.80;;;-2.70;99.90;;;;;;4921118;29;20151;-66
2021/12/21 07:18:11;;;;;;;15.05;4.85;;;-2.70;99.90;;;;;;4928592;29;20056;-67
2021/12/21 07:20:38;;;;;;;19.00;5.18;;;-2.70;99.90;;;;;;4928761;29;20048;-66
2021/12/21 07:23:05;;;;;;;12.32;5.25;;;-2.70;99.90;;;;;;4927411;29;20119;-66
2021/12/21 07:25:32;;;;;;;14.05;5.20;;;-2.70;99.90;;;;;;4927919;29;20044;-66
2021/12/21 07:27:58;;;;;;;17.42;5.22;;;-2.70;99.90;;;;;;4911274;29;20569;-66
2021/12/21 07:30:25;;;;;;;15.13;5.15;;;-2.70;99.90;;;;;;4929306;29;20091;-67
2021/12/21 07:32:51;;;;;;;14.07;5.55;;;-2.70;99.90;;;;;;4932388;29;20051;-66
2021/12/21 07:35:17;;;;;;;11.15;5.97;;;-2.70;99.90;;;;;;4932231;29;20102;-66
2021/12/21 07:37:42;;;;;;;13.63;5.03;;;-2.70;99.90;;;;;;4897681;29;20523;-67
2021/12/21 07:40:10;;;;;;;17.25;6.20;;;-2.70;99.90;;;;;;4932049;29;20064;-66
2021/12/21 07:42:35;;;;;;;18.02;5.43;;;-2.70;99.90;;;;;;4932232;29;21059;-66
2021/12/21 07:45:01;;;;;;;9.82;4.60;;;-2.70;99.90;;;;;;4929223;29;20140;-67
2021/12/21 07:47:27;;;;;;;16.42;5.35;;;-2.70;99.90;;;;;;4911686;29;20119;-67
2021/12/21 07:49:53;;;;;;;15.10;5.10;;;-2.70;99.90;;;;;;4930873;29;20043;-66
2021/12/21 07:52:19;;;;;;;11.45;5.05;;;-2.70;99.90;;;;;;4931391;29;20054;-67
2021/12/21 07:54:45;;;;;;;12.70;5.32;;;-2.70;99.90;;;;;;4914006;29;20055;-66
2021/12/21 07:57:12;;;;;;;8.90;4.57;;;-2.70;99.90;;;;;;4931461;29;20063;-66
2021/12/21 07:59:39;;;;;;;15.90;5.25;;;-2.70;99.90;;;;;;4913831;29;20043;-67
2021/12/21 08:02:06;;;;;;;16.50;5.75;;;-2.70;99.90;;;;;;4913350;29;20586;-67
2021/12/21 08:04:33;;;;;;;9.05;5.47;;;-2.70;99.90;;;;;;4931077;29;20045;-66
2021/12/21 08:07:07;;;;;;;9.90;5.03;;;-2.70;99.90;;;;;;4913825;29;20099;-66
2021/12/21 08:09:39;;;;;;;15.02;5.80;;;-2.60;99.90;;;;;;4930894;29;20376;-67
2021/12/21 08:12:15;;;;;;;15.73;6.25;;;-2.60;99.90;;;;;;4931189;29;20418;-66
2021/12/21 08:14:55;;;;;;;;;;;-2.60;99.90;;;;;;4937888;29;20056;-66
2021/12/21 08:17:23;;;;;;;8.23;5.10;;;-2.60;99.90;;;;;;4930047;29;19970;-66
2021/12/21 08:19:49;;;;;;;13.23;5.55;;;-2.50;99.90;;;;;;4913320;29;20087;-66
2021/12/21 08:22:15;;;;;;;14.77;6.28;;;-2.50;99.90;;;;;;4913602;29;20094;-66
2021/12/21 08:24:43;;;;;;;15.07;6.18;;;-2.50;99.90;;;;;;4934040;29;20125;-66
2021/12/21 08:27:09;;;;;;;13.07;6.18;;;-2.40;99.90;;;;;;4915983;29;20047;-66
2021/12/21 08:29:35;;;;;;;16.45;6.47;;;-2.40;99.90;;;;;;4932060;29;20048;-66
2021/12/21 08:32:01;;;;;;;18.83;6.13;;;-2.40;99.90;;;;;;4932165;29;20047;-66
2021/12/21 08:34:27;;;;;;;22.23;6.72;;;-2.30;99.90;;;;;;4932050;29;20044;-66
2021/12/21 08:36:53;;;;;;;16.20;6.05;;;-2.20;99.90;;;;;;4924013;29;20035;-66
2021/12/21 08:39:23;;;;;;;9.43;5.93;;;-2.10;99.90;;;;;;4913564;29;20119;-66
2021/12/21 08:41:56;;;;;;;16.50;6.33;;;-2.10;99.90;;;;;;4912478;29;20094;-66
2021/12/21 08:44:25;;;;;;;19.92;6.53;;;-2.00;99.90;;;;;;4929616;29;20495;-66
2021/12/21 08:46:53;;;;;;;14.95;6.47;;;-2.00;99.90;;;;;;4932748;29;20039;-66
2021/12/21 08:49:19;;;;;;;18.88;6.35;;;-1.90;99.90;;;;;;4912654;29;20055;-65
2021/12/21 08:51:44;;;;;;;16.38;6.80;;;-1.90;99.90;;;;;;4930829;29;20043;-66
2021/12/21 08:54:12;;;;;;;19.40;6.55;;;-1.80;99.90;;;;;;4914171;29;20099;-66
2021/12/21 08:56:38;;;;;;;16.52;6.28;;;-1.70;99.90;;;;;;4930307;29;20062;-65
2021/12/21 08:59:03;;;;;;;20.63;6.90;;;-1.70;99.90;;;;;;4924161;29;20048;-66
2021/12/21 09:01:29;;;;;;;16.08;6.53;;;-1.60;99.90;;;;;;4909507;29;20069;-65
2021/12/21 09:03:55;;;;;;;22.58;6.75;;;-1.50;99.90;;;;;;4930511;29;20118;-66
2021/12/21 09:06:23;;;;;;;13.73;7.15;;;-1.40;99.90;;;;;;4930313;29;20044;-65
2021/12/21 09:08:49;;;;;;;19.38;6.90;;;-1.30;99.90;;;;;;4930120;29;20032;-66
2021/12/21 09:11:15;;;;;;;27.55;8.00;;;-1.20;99.90;;;;;;4943455;29;20586;-66
2021/12/21 09:13:41;;;;;;;26.63;7.55;;;-1.10;99.90;;;;;;4920672;29;20036;-66
2021/12/21 09:16:07;;;;;;;17.42;7.80;;;-1.10;99.90;;;;;;4937995;29;20050;-66
2021/12/21 09:18:33;;;;;;;16.17;7.70;;;-1.00;99.90;;;;;;4948244;29;20045;-66
2021/12/21 09:20:59;;;;;;;21.83;6.22;;;-0.90;99.90;;;;;;4943839;29;20094;-65
2021/12/21 09:23:26;;;;;;;14.93;6.93;;;-0.90;99.90;;;;;;4927712;29;20509;-66
2021/12/21 09:25:52;;;;;;;18.05;6.65;;;-0.80;99.90;;;;;;4923835;29;20050;-65
2021/12/21 09:28:18;;;;;;;13.13;6.50;;;-0.70;99.90;;;;;;4910526;29;20054;-66
2021/12/21 09:30:44;;;;;;;16.25;6.38;;;-0.60;99.90;;;;;;4944971;29;20043;-65
2021/12/21 09:33:10;;;;;;;14.80;7.07;;;-0.60;99.90;;;;;;4921048;29;20142;-65
2021/12/21 09:35:35;;;;;;;19.88;7.20;;;-0.60;99.90;;;;;;4922288;29;20536;-65
2021/12/21 09:38:01;;;;;;;17.20;6.90;;;-0.50;99.90;;;;;;4940712;29;20035;-65
2021/12/21 09:40:28;;;;;;;17.33;7.50;;;-0.50;99.90;;;;;;4901023;29;20044;-65
2021/12/21 09:42:56;;;;;;;20.67;6.30;;;-0.50;99.90;;;;;;4907861;29;20727;-65
2021/12/21 09:45:22;;;;;;;13.45;6.40;;;-0.50;99.90;;;;;;4930492;29;20091;-65
2021/12/21 09:47:51;;;;;;;16.45;7.05;;;-0.40;99.90;;;;;;4929373;29;20040;-65
2021/12/21 09:50:20;;;;;;;16.35;7.05;;;-0.40;99.80;;;;;;4912183;29;20043;-65
2021/12/21 09:52:46;;;;;;;18.33;5.85;;;-0.40;99.50;;;;;;4904449;29;20059;-64
2021/12/21 09:55:14;;;;;;;11.55;5.57;;;-0.30;99.30;;;;;;4911151;29;20155;-65
2021/12/21 09:57:41;;;;;;;14.88;5.50;;;-0.30;99.00;;;;;;4911329;29;20050;-65
2021/12/21 10:00:10;;;;;;;25.67;5.63;;;-0.20;98.80;;;;;;4929058;29;20131;-65
2021/12/21 10:02:36;;;;;;;16.25;6.53;;;-0.20;98.50;;;;;;4927510;29;20051;-65
2021/12/21 10:05:08;;;;;;;25.00;6.70;;;-0.10;98.40;;;;;;4924456;29;20043;-65
2021/12/21 10:07:34;;;;;;;18.13;6.25;;;-0.10;98.40;;;;;;4921561;29;20053;-65
2021/12/21 10:10:06;;;;;;;27.83;6.38;;;0.00;98.30;;;;;;4901268;29;20048;-65
2021/12/21 10:12:35;;;;;;;20.60;5.50;;;0.00;98.10;;;;;;4902360;29;20533;-65
2021/12/21 10:15:24;;;;;;;20.70;5.30;;;0.10;97.90;;;;;;4905005;29;20095;-65
2021/12/21 10:17:59;;;;;;;16.13;5.50;;;0.10;97.70;;;;;;4914907;29;20043;-65
2021/12/21 10:20:55;;;;;;;16.48;6.20;;;0.20;97.40;;;;;;4928424;29;20052;-65
2021/12/21 10:23:44;;;;;;;22.42;5.78;;;0.20;97.20;;;;;;4911185;29;20056;-65
2021/12/21 10:26:20;;;;;;;12.85;6.07;;;0.30;97.20;;;;;;4936836;29;20051;-65
2021/12/21 10:28:49;;;;;;;12.45;6.20;;;0.40;97.10;;;;;;4940819;29;20058;-65
2021/12/21 10:31:24;;;;;;;17.13;6.60;;;0.40;96.90;;;;;;4915928;29;20056;-65
2021/12/21 10:33:50;;;;;;;15.10;5.80;;;0.40;96.80;;;;;;4921079;29;20052;-65
2021/12/21 10:36:16;;;;;;;16.88;6.13;;;0.50;96.70;;;;;;4931426;29;20047;-65
2021/12/21 10:38:50;;;;;;;29.27;7.28;;;0.50;96.60;;;;;;4909837;29;20043;-65
2021/12/21 10:41:32;;;;;;;24.38;7.55;;;0.60;96.50;;;;;;4927414;29;20051;-65
2021/12/21 10:44:02;;;;;;;19.70;6.70;;;0.60;96.60;;;;;;4928476;29;20054;-65
2021/12/21 10:46:30;;;;;;;23.52;8.23;;;0.70;96.60;;;;;;4927453;29;20388;-65
2021/12/21 10:49:16;;;;;;;22.35;6.78;;;0.70;96.50;;;;;;4910648;29;20540;-65
2021/12/21 10:52:07;;;;;;;11.70;5.93;;;0.80;96.40;;;;;;4894333;29;20055;-65
2021/12/21 10:54:42;;;;;;;22.92;6.85;;;0.90;96.00;;;;;;4927107;29;20043;-65
2021/12/21 10:57:11;;;;;;;17.33;7.18;;;0.90;95.60;;;;;;4918961;29;20534;-66
2021/12/21 10:59:41;;;;;;;25.52;7.22;;;0.90;95.20;;;;;;4927458;29;20083;-65
2021/12/21 11:02:22;;;;;;;18.00;8.38;;;1.00;95.00;;;;;;4928153;29;20138;-65
2021/12/21 11:04:54;;;;;;;18.13;7.45;;;1.00;95.10;;;;;;4919961;29;20077;-66
2021/12/21 11:07:30;;;;;;;14.00;6.03;;;1.00;95.50;;;;;;4924236;29;20055;-66
2021/12/21 11:10:27;;;;;;;15.75;6.05;;;1.10;95.50;;;;;;4921822;29;20039;-65
2021/12/21 11:12:58;;;;;;;24.92;6.63;;;1.10;95.70;;;;;;4926727;29;20043;-65
2021/12/21 11:15:29;;;;;;;;;;;1.10;95.50;;;;;;4928214;29;20483;-65
2021/12/21 11:18:13;;;;;;;16.85;6.20;;;1.20;95.40;;;;;;4923506;29;20266;-65
2021/12/21 11:20:42;;;;;;;20.75;5.97;;;1.20;95.20;;;;;;4926164;29;20047;-65
2021/12/21 11:23:12;;;;;;;16.88;5.55;;;1.20;95.00;;;;;;4908571;29;20051;-65
2021/12/21 11:25:39;;;;;;;16.65;6.55;;;1.30;94.80;;;;;;4912850;29;20043;-65
2021/12/21 11:28:05;;;;;;;14.20;5.63;;;1.30;94.60;;;;;;4935120;29;20529;-66
2021/12/21 11:30:34;;;;;;;16.10;4.43;;;1.30;94.40;;;;;;4892734;29;1118410;-66
2021/12/21 11:33:06;;;;;;;13.48;4.95;;;1.40;93.70;;;;;;4938360;29;20055;-65
2021/12/21 11:38:06;;;;;;;9.82;4.78;;;1.40;92.80;;;;;;4918181;29;20055;-65
2021/12/21 11:40:38;;;;;;;11.82;5.10;;;1.50;92.70;;;;;;4936088;29;20059;-65
2021/12/21 11:43:35;;;;;;;16.67;5.32;;;1.50;92.50;;;;;;4892983;29;20064;-66
2021/12/21 11:46:09;;;;;;;16.02;5.43;;;1.50;93.10;;;;;;4922771;29;20079;-66
2021/12/21 11:49:18;;;;;;;16.55;5.47;;;1.50;93.70;;;;;;4910820;29;20071;-65
2021/12/21 11:51:43;;;;;;;15.65;5.22;;;1.60;94.00;;;;;;4910283;29;20056;-65
2021/12/21 11:54:18;;;;;;;10.45;4.68;;;1.60;93.90;;;;;;4926451;29;20047;-66
2021/12/21 11:56:44;;;;;;;12.55;5.05;;;1.60;93.60;;;;;;4926981;29;20047;-66
2021/12/21 11:59:11;;;;;;;15.05;5.03;;;1.60;93.40;;;;;;4910165;29;20139;-65
2021/12/21 12:01:45;;;;;;;13.43;4.63;;;1.70;92.80;;;;;;4912546;29;20047;-66
2021/12/21 12:04:12;;;;;;;11.30;5.00;;;1.70;92.30;;;;;;4926885;29;20597;-65
2021/12/21 12:06:49;;;;;;;14.27;5.05;;;1.70;92.00;;;;;;4927731;29;20047;-66
2021/12/21 12:09:29;;;;;;;15.98;4.70;;;1.80;92.00;;;;;;4926538;29;20056;-65
2021/12/21 12:12:09;;;;;;;11.65;4.68;;;1.80;92.50;;;;;;4927955;29;20122;-66
2021/12/21 12:14:37;;;;;;;;;;;1.80;91.80;;;;;;4928268;29;20059;-65
2021/12/21 12:17:14;;;;;;;10.60;4.43;;;1.90;91.90;;;;;;4911894;29;19922;-65
2021/12/21 12:19:44;;;;;;;16.30;4.70;;;1.90;91.80;;;;;;4930573;29;20410;-65
2021/12/21 12:22:15;;;;;;;7.97;3.43;;;2.00;91.90;;;;;;4931228;29;20058;-65
2021/12/21 12:24:45;;;;;;;8.02;4.65;;;2.00;92.20;;;;;;4930533;29;20040;-65
2021/12/21 12:27:22;;;;;;;12.43;5.63;;;2.10;92.20;;;;;;4930822;29;20063;-65
2021/12/21 12:29:52;;;;;;;8.88;4.55;;;2.10;91.90;;;;;;4911672;29;20040;-65
2021/12/21 12:32:34;;;;;;;11.20;5.90;;;2.10;92.20;;;;;;4928386;29;20052;-65
2021/12/21 12:35:10;;;;;;;11.88;4.70;;;2.20;92.00;;;;;;4930190;29;20043;-65
2021/12/21 12:38:18;;;;;;;14.98;4.32;;;2.20;91.80;;;;;;4931190;29;20138;-65
2021/12/21 12:40:52;;;;;;;12.30;4.22;;;2.30;92.00;;;;;;4904507;29;20064;-65
2021/12/21 12:43:24;;;;;;;8.82;4.22;;;2.40;91.70;;;;;;4913582;29;20127;-65
2021/12/21 12:46:02;;;;;;;9.18;4.32;;;2.40;91.50;;;;;;4925619;29;20121;-65
2021/12/21 12:48:43;;;;;;;16.10;4.35;;;2.40;91.30;;;;;;4922837;29;20529;-65
2021/12/21 12:51:22;;;;;;;9.98;4.25;;;2.50;91.10;;;;;;4924281;29;20541;-66
2021/12/21 12:53:49;;;;;;;7.00;3.65;;;2.60;91.10;;;;;;4928407;29;20050;-65
2021/12/21 12:56:18;;;;;;;8.40;3.97;;;2.60;90.50;;;;;;4930292;29;20040;-65
2021/12/21 12:59:04;;;;;;;12.10;4.53;;;2.70;90.30;;;;;;4912413;29;20044;-66
2021/12/21 13:01:32;;;;;;;12.45;4.15;;;2.70;90.10;;;;;;4908819;29;20056;-66
2021/12/21 13:04:08;;;;;;;10.95;4.03;;;2.70;90.20;;;;;;4922576;29;20032;-66
2021/12/21 13:06:36;;;;;;;10.10;3.85;;;2.80;89.30;;;;;;4924117;29;20047;-65
2021/12/21 13:09:10;;;;;;;9.55;3.65;;;2.80;87.80;;;;;;4934585;29;20074;-65
2021/12/21 13:11:37;;;;;;;9.57;3.75;;;2.90;89.60;;;;;;4910262;29;20087;-65
2021/12/21 13:14:03;;;;;;;10.07;4.47;;;2.90;89.80;;;;;;4916117;29;20474;-66
2021/12/21 13:16:31;;;;;;;5.78;3.33;;;2.90;90.20;;;;;;4928574;29;20050;-65
2021/12/21 13:19:16;;;;;;;12.50;3.97;;;2.90;89.30;;;;;;4927865;29;20044;-65
2021/12/21 13:21:56;;;;;;;10.32;4.00;;;2.90;88.80;;;;;;4929616;29;20055;-66
2021/12/21 13:24:24;;;;;;;7.35;3.65;;;2.90;89.60;;;;;;4930027;29;20122;-65
2021/12/21 13:26:55;;;;;;;11.55;3.65;;;2.90;89.40;;;;;;4912349;29;20043;-65
2021/12/21 13:29:42;;;;;;;6.28;3.50;;;2.90;89.40;;;;;;4904651;29;20454;-65
2021/12/21 13:32:12;;;;;;;24.45;10.30;;;2.90;90.40;;;;;;4928480;29;20714;-66
2021/12/21 13:34:40;;;;;;;13.52;4.95;;;2.90;90.60;;;;;;4911270;29;20055;-66
2021/12/21 13:37:11;;;;;;;7.80;3.95;;;2.90;90.70;;;;;;4929340;29;20070;-65
2021/12/21 13:39:45;;;;;;;14.13;4.03;;;2.90;91.00;;;;;;4929817;29;20062;-66
2021/12/21 13:42:18;;;;;;;8.70;3.95;;;2.90;91.00;;;;;;4929964;29;20130;-66
2021/12/21 13:44:52;;;;;;;10.38;4.18;;;2.90;90.90;;;;;;4929572;29;20062;-66
2021/12/21 13:47:50;;;;;;;9.55;3.90;;;2.80;90.70;;;;;;4929823;29;20102;-66
2021/12/21 13:50:26;;;;;;;16.73;4.18;;;2.80;90.90;;;;;;4929632;29;20134;-66
2021/12/21 13:52:59;;;;;;;6.70;3.63;;;2.70;90.80;;;;;;4929007;29;20036;-66
2021/12/21 13:55:33;;;;;;;15.02;4.43;;;2.60;91.10;;;;;;4924636;29;20050;-66
2021/12/21 13:58:04;;;;;;;12.13;4.47;;;2.60;91.40;;;;;;4922416;29;20082;-65
2021/12/21 14:00:32;;;;;;;8.40;3.72;;;2.50;91.20;;;;;;4929399;29;20075;-66
2021/12/21 14:03:16;;;;;;;9.27;3.47;;;2.50;91.00;;;;;;4915877;29;20134;-66
2021/12/21 14:05:45;;;;;;;11.13;3.65;;;2.40;91.00;;;;;;4924571;29;20036;-66
2021/12/21 14:08:15;;;;;;;10.80;4.40;;;2.30;91.30;;;;;;4911438;29;20055;-66
2021/12/21 14:10:48;;;;;;;7.15;3.60;;;2.20;91.50;;;;;;4910194;29;20130;-66
2021/12/21 14:13:16;;;;;;;8.45;3.90;;;2.20;91.50;;;;;;4923958;29;20094;-66
2021/12/21 14:15:46;;;;;;;10.93;3.92;;;2.10;91.50;;;;;;4919230;29;20076;-66